Terminal Aerodrome Forecast
Issued by NWS

Home | Current Version | Previous Version | Text Only | Print | Product List | Glossary Off
Versions: 1 2 3 4 5 6 7 8 9 10 11 12 13 14 15 16 17 18 19 20 21 22 23 24 25 26 27 28 29 30 31 32

000
FTUS43 KLOT 281410 AAA
TAFDPA
TAF AMD
KDPA 281410Z 2814/2912 14009KT P6SM SCT250
     FM281600 13010KT P6SM SCT050 BKN250
     FM290100 14005KT P6SM SCT120 BKN250
     FM290600 19006KT P6SM BKN050 PROB30 2907/2912 3SM TSRA
      OVC050CB=

USA.gov is the U.S. government's official web portal to all federal, state and local government web resources and services.